Time;durP1;ratioP1;P1;durP2;ratioP2;P2;SDS_P1;SDS_P2;PMS_P1;PMS_P2;Temp;Humidity;BMP_temperature;BMP_pressure;BME280_temperature;BME280_humidity;BME280_pressure;Samples;Min_cycle;Max_cycle;Signal;HPM_P1;HPM_P2
2023/07/27 00:02:17;;;;;;;4.40;4.00;;;23.20;67.40;;;;;;5003341;28;20506;-79
2023/07/27 00:04:43;;;;;;;4.50;4.10;;;23.20;67.40;;;;;;5020697;28;20490;-78
2023/07/27 00:07:13;;;;;;;4.13;3.83;;;23.20;67.50;;;;;;5022847;28;20181;-79
2023/07/27 00:09:39;;;;;;;5.57;4.20;;;23.20;67.40;;;;;;5023377;28;20449;-79
2023/07/27 00:12:05;;;;;;;5.03;4.63;;;23.20;67.50;;;;;;5006868;28;20867;-80
2023/07/27 00:14:31;;;;;;;6.37;4.13;;;23.20;67.40;;;;;;5040276;28;20447;-80
2023/07/27 00:16:59;;;;;;;4.40;4.00;;;23.20;67.50;;;;;;5021306;28;20498;-79
2023/07/27 00:19:28;;;;;;;4.20;3.80;;;23.20;67.50;;;;;;5021273;28;20466;-79
2023/07/27 00:21:56;;;;;;;4.50;4.10;;;23.10;68.30;;;;;;5021288;28;20459;-80
2023/07/27 00:24:24;;;;;;;4.77;4.23;;;23.10;67.40;;;;;;5022184;28;20424;-79
2023/07/27 00:26:50;;;;;;;5.47;4.20;;;23.10;67.40;;;;;;5025134;28;20177;-80
2023/07/27 00:29:19;;;;;;;4.37;3.97;;;23.10;67.30;;;;;;5041380;28;20442;-79
2023/07/27 00:31:48;;;;;;;4.80;4.30;;;23.10;67.40;;;;;;5025394;28;20193;-79
2023/07/27 00:34:14;;;;;;;4.33;3.93;;;23.10;67.60;;;;;;5043304;28;20420;-78
2023/07/27 00:36:42;;;;;;;5.10;3.87;;;23.10;67.70;;;;;;5023093;28;20454;-78
2023/07/27 00:39:13;;;;;;;4.37;3.97;;;23.10;67.60;;;;;;5022808;28;20455;-76
2023/07/27 00:41:44;;;;;;;4.93;4.20;;;23.10;67.60;;;;;;5025253;28;21037;-80
2023/07/27 00:44:13;;;;;;;5.77;4.17;;;23.10;67.70;;;;;;5024589;28;20424;-80
2023/07/27 00:46:43;;;;;;;4.07;3.67;;;23.10;67.70;;;;;;5024871;28;20423;-80
2023/07/27 00:49:09;;;;;;;4.27;3.87;;;23.10;67.70;;;;;;5025716;28;20449;-80
2023/07/27 00:51:39;;;;;;;4.07;3.63;;;23.10;67.70;;;;;;5024995;28;20415;-78
2023/07/27 00:54:09;;;;;;;4.10;3.80;;;23.10;67.70;;;;;;5024926;28;20438;-79
2023/07/27 00:56:36;;;;;;;4.73;4.20;;;23.00;67.60;;;;;;5007749;28;20460;-80
2023/07/27 00:59:06;;;;;;;4.73;4.23;;;23.10;67.80;;;;;;5008855;28;20452;-79
2023/07/27 01:01:33;;;;;;;4.03;3.73;;;23.10;67.80;;;;;;5025714;28;20814;-78
2023/07/27 01:04:05;;;;;;;4.43;4.03;;;23.00;67.60;;;;;;5043011;28;20427;-79
2023/07/27 01:06:32;;;;;;;4.00;3.70;;;23.00;67.60;;;;;;5024540;28;20504;-79
2023/07/27 01:09:03;;;;;;;3.90;3.60;;;23.00;67.50;;;;;;5007856;28;20502;-80
2023/07/27 01:11:48;;;;;;;7.27;3.70;;;23.00;67.60;;;;;;5024245;28;20466;-80
2023/07/27 01:14:51;;;;;;;4.13;3.83;;;23.00;67.60;;;;;;5040740;28;20416;-80
2023/07/27 01:17:27;;;;;;;4.00;3.60;;;23.00;67.60;;;;;;5007238;28;20463;-79
2023/07/27 01:20:06;;;;;;;4.23;3.93;;;23.00;67.80;;;;;;5024093;28;20451;-78
2023/07/27 01:22:32;;;;;;;4.10;3.70;;;23.00;67.80;;;;;;5024506;28;20431;-78
2023/07/27 01:25:09;;;;;;;4.70;4.17;;;23.00;67.70;;;;;;5040236;28;20411;-79
2023/07/27 01:28:01;;;;;;;4.37;4.07;;;23.00;67.70;;;;;;5024451;28;20498;-79
2023/07/27 01:30:29;;;;;;;4.10;3.80;;;23.00;67.70;;;;;;5023653;28;20474;-79
2023/07/27 01:33:08;;;;;;;4.77;4.27;;;22.90;67.50;;;;;;5008568;28;20416;-80
2023/07/27 01:36:01;;;;;;;4.37;3.93;;;22.90;67.50;;;;;;5043577;28;20439;-79
2023/07/27 01:38:36;;;;;;;4.10;3.70;;;22.90;67.50;;;;;;5007463;28;21004;-80
2023/07/27 01:41:06;;;;;;;4.10;3.80;;;22.90;67.60;;;;;;5026219;28;20412;-80
2023/07/27 01:43:38;;;;;;;4.30;3.90;;;22.90;67.60;;;;;;5026098;28;20462;-79
2023/07/27 01:46:08;;;;;;;4.17;3.77;;;22.90;67.60;;;;;;5041036;28;20419;-79
2023/07/27 01:48:41;;;;;;;4.23;3.77;;;22.90;67.60;;;;;;5008910;28;20460;-80
2023/07/27 01:51:11;;;;;;;4.50;4.10;;;22.90;67.60;;;;;;5042890;28;20422;-79
2023/07/27 01:53:41;;;;;;;4.67;4.20;;;22.90;67.60;;;;;;5009249;28;20922;-79
2023/07/27 01:56:08;;;;;;;4.50;4.10;;;22.90;67.60;;;;;;5024653;28;20774;-79
2023/07/27 01:58:36;;;;;;;3.83;3.43;;;22.90;67.60;;;;;;5040974;28;21052;-80
2023/07/27 02:01:07;;;;;;;4.57;4.17;;;22.90;67.60;;;;;;5041362;28;20834;-79
2023/07/27 02:03:35;;;;;;;4.97;3.73;;;22.90;67.60;;;;;;5041672;28;20422;-80
2023/07/27 02:06:02;;;;;;;4.23;3.83;;;22.90;67.60;;;;;;5041151;28;20862;-80
2023/07/27 02:08:28;;;;;;;4.80;4.00;;;22.90;67.70;;;;;;5008599;28;20481;-79
2023/07/27 02:11:05;;;;;;;4.87;4.33;;;22.80;67.60;;;;;;5025400;28;20438;-78
2023/07/27 02:13:51;;;;;;;3.67;3.37;;;22.80;67.70;;;;;;5042130;28;20454;-80
2023/07/27 02:16:44;;;;;;;7.13;4.07;;;22.80;67.90;;;;;;5040529;28;21005;-78
2023/07/27 02:19:16;;;;;;;4.43;3.90;;;22.80;68.00;;;;;;5023821;28;20490;-79
2023/07/27 02:21:46;;;;;;;5.00;3.90;;;22.80;68.10;;;;;;5023760;28;20475;-79
2023/07/27 02:24:15;;;;;;;4.27;3.90;;;22.80;68.20;;;;;;5023204;28;20441;-79
2023/07/27 02:26:46;;;;;;;4.30;4.00;;;22.80;68.30;;;;;;4992619;28;20439;-77
2023/07/27 02:29:14;;;;;;;4.33;4.03;;;22.70;68.20;;;;;;5008074;28;20459;-79
2023/07/27 02:31:42;;;;;;;4.00;3.63;;;22.80;68.50;;;;;;5007390;28;20451;-79
2023/07/27 02:34:09;;;;;;;4.03;3.73;;;22.70;69.40;;;;;;5007889;28;21122;-79
2023/07/27 02:36:35;;;;;;;4.20;3.90;;;22.80;68.80;;;;;;5007280;28;21028;-79
2023/07/27 02:39:02;;;;;;;5.00;4.40;;;22.80;68.80;;;;;;5006961;28;20770;-79
2023/07/27 02:41:28;;;;;;;3.90;3.40;;;22.80;69.00;;;;;;5007150;28;20841;-78
2023/07/27 02:43:57;;;;;;;4.60;4.20;;;22.70;68.90;;;;;;5023701;28;20420;-79
2023/07/27 02:46:29;;;;;;;6.90;3.80;;;22.80;69.00;;;;;;5007427;28;20509;-79
2023/07/27 02:48:55;;;;;;;5.10;4.40;;;22.70;68.90;;;;;;5006738;28;20481;-79
2023/07/27 02:51:21;;;;;;;4.37;3.97;;;22.70;69.10;;;;;;5022698;28;20490;-79
2023/07/27 02:53:48;;;;;;;4.60;4.10;;;22.70;69.30;;;;;;5022634;28;20798;-79
2023/07/27 02:56:29;;;;;;;4.37;3.97;;;22.70;69.40;;;;;;5039522;28;20489;-79
2023/07/27 02:58:58;;;;;;;5.10;4.03;;;22.70;69.40;;;;;;5006258;28;20451;-79
2023/07/27 03:01:26;;;;;;;5.13;4.63;;;22.70;69.60;;;;;;5023309;28;20550;-79
2023/07/27 03:03:58;;;;;;;4.70;4.30;;;22.60;69.60;;;;;;5006365;28;20562;-78
2023/07/27 03:06:26;;;;;;;4.77;4.23;;;22.70;69.80;;;;;;5022046;28;20431;-79
2023/07/27 03:08:56;;;;;;;4.27;3.87;;;22.70;69.80;;;;;;5006306;28;20452;-79
2023/07/27 03:11:24;;;;;;;4.50;4.20;;;22.60;69.70;;;;;;5022349;28;20442;-79
2023/07/27 03:13:53;;;;;;;4.40;4.00;;;22.60;69.90;;;;;;5022540;28;20422;-79
2023/07/27 03:16:19;;;;;;;4.20;3.87;;;22.60;69.90;;;;;;5007097;28;20466;-79
2023/07/27 03:18:45;;;;;;;3.87;3.57;;;22.60;69.90;;;;;;5006093;28;21036;-79
2023/07/27 03:21:11;;;;;;;4.03;3.73;;;22.60;70.00;;;;;;5021699;28;20450;-80
2023/07/27 03:23:37;;;;;;;3.83;3.50;;;22.60;70.20;;;;;;5022215;28;20468;-78
2023/07/27 03:26:11;;;;;;;4.77;4.27;;;22.60;70.30;;;;;;5006520;28;20519;-80
2023/07/27 03:28:40;;;;;;;4.10;3.80;;;22.60;70.40;;;;;;5023202;28;20438;-79
2023/07/27 03:31:15;;;;;;;4.60;4.20;;;22.60;70.40;;;;;;5007126;28;20443;-79
2023/07/27 03:33:40;;;;;;;4.10;3.80;;;22.60;70.50;;;;;;5023550;28;20428;-80
2023/07/27 03:36:07;;;;;;;4.13;3.80;;;22.60;70.70;;;;;;5041665;28;20455;-79
2023/07/27 03:38:35;;;;;;;4.43;4.03;;;22.60;70.80;;;;;;5007254;28;20446;-80
2023/07/27 03:41:02;;;;;;;4.00;3.70;;;22.50;70.80;;;;;;5011232;28;20201;-78
2023/07/27 03:43:31;;;;;;;4.67;4.10;;;22.60;70.80;;;;;;5011704;28;21255;-79
2023/07/27 03:45:57;;;;;;;4.37;3.87;;;22.60;70.90;;;;;;5002115;28;20416;-80
2023/07/27 03:48:26;;;;;;;4.23;3.93;;;22.50;70.80;;;;;;5007048;28;20663;-80
2023/07/27 03:50:55;;;;;;;4.37;4.07;;;22.50;71.20;;;;;;5007845;28;20495;-80
2023/07/27 03:53:21;;;;;;;4.60;3.97;;;22.50;71.20;;;;;;5008280;28;20440;-79
2023/07/27 03:55:47;;;;;;;4.47;4.17;;;22.50;71.10;;;;;;4975016;28;20447;-78
2023/07/27 03:58:15;;;;;;;4.47;4.07;;;22.50;71.10;;;;;;5023923;28;20416;-79
2023/07/27 04:00:41;;;;;;;3.73;3.43;;;22.50;71.30;;;;;;5007373;28;20431;-80
2023/07/27 04:03:07;;;;;;;4.97;4.03;;;22.50;72.20;;;;;;4991236;28;20416;-79
2023/07/27 04:05:33;;;;;;;4.13;3.80;;;22.50;71.50;;;;;;5006616;28;21201;-80
2023/07/27 04:08:04;;;;;;;5.70;4.20;;;22.50;71.60;;;;;;5023496;28;20442;-79
2023/07/27 04:10:30;;;;;;;4.87;4.37;;;22.50;71.60;;;;;;4974286;28;20523;-79
2023/07/27 04:13:01;;;;;;;5.00;4.37;;;22.40;71.60;;;;;;5023153;28;20430;-79
2023/07/27 04:15:30;;;;;;;4.80;4.40;;;22.40;71.90;;;;;;4991082;28;20474;-79
2023/07/27 04:17:59;;;;;;;4.77;4.47;;;22.40;71.90;;;;;;5007375;28;20464;-79
2023/07/27 04:20:27;;;;;;;4.50;4.10;;;22.40;71.80;;;;;;5006635;28;20473;-79
2023/07/27 04:22:53;;;;;;;4.93;4.53;;;22.40;71.80;;;;;;5022690;28;20935;-78
2023/07/27 04:25:22;;;;;;;4.90;4.27;;;22.40;71.90;;;;;;4989653;28;20487;-79
2023/07/27 04:27:57;;;;;;;4.53;4.20;;;22.40;72.20;;;;;;5005747;28;20436;-78
2023/07/27 04:30:23;;;;;;;5.57;4.40;;;22.40;72.10;;;;;;5030590;28;20569;-76
2023/07/27 04:32:49;;;;;;;4.77;4.27;;;22.40;72.30;;;;;;5020269;28;20448;-77
2023/07/27 04:35:15;;;;;;;6.23;5.33;;;22.40;72.40;;;;;;5037290;28;20423;-78
2023/07/27 04:37:41;;;;;;;4.30;3.90;;;22.40;72.50;;;;;;5035363;28;20463;-78
2023/07/27 04:40:07;;;;;;;4.93;4.43;;;22.40;72.80;;;;;;5018403;28;20485;-76
2023/07/27 04:42:36;;;;;;;4.90;4.50;;;22.30;72.80;;;;;;5030914;28;20423;-74
2023/07/27 04:45:05;;;;;;;4.70;4.30;;;22.30;73.00;;;;;;5013499;28;20507;-73
2023/07/27 04:47:35;;;;;;;5.20;4.27;;;22.30;73.00;;;;;;4996534;28;20784;-73
2023/07/27 04:50:07;;;;;;;4.83;4.43;;;22.30;73.10;;;;;;5013202;28;21393;-73
2023/07/27 04:52:35;;;;;;;5.63;5.13;;;22.30;73.00;;;;;;5012610;28;20946;-73
2023/07/27 04:55:01;;;;;;;7.07;4.50;;;22.30;73.00;;;;;;4996539;28;20791;-73
2023/07/27 04:57:34;;;;;;;5.30;4.90;;;22.30;73.10;;;;;;5012745;28;20465;-74
2023/07/27 05:00:02;;;;;;;4.77;4.40;;;22.30;73.50;;;;;;5012235;28;20477;-74
2023/07/27 05:02:33;;;;;;;5.30;4.80;;;22.30;73.70;;;;;;5030554;28;20824;-73
2023/07/27 05:04:59;;;;;;;4.60;4.20;;;22.20;73.70;;;;;;5029329;28;20440;-74
2023/07/27 05:07:25;;;;;;;5.63;5.13;;;22.20;73.90;;;;;;5012377;28;20187;-74
2023/07/27 05:09:51;;;;;;;4.90;4.50;;;22.20;74.10;;;;;;4996084;28;20471;-74
2023/07/27 05:12:21;;;;;;;6.20;4.00;;;22.20;74.10;;;;;;5030127;28;20450;-74
2023/07/27 05:14:47;;;;;;;5.33;4.40;;;22.20;74.00;;;;;;5029020;28;20415;-74
2023/07/27 05:17:13;;;;;;;4.67;4.10;;;22.20;73.60;;;;;;4995902;28;20467;-74
2023/07/27 05:19:42;;;;;;;4.90;4.00;;;22.20;73.80;;;;;;5012208;28;20443;-74
2023/07/27 05:22:08;;;;;;;4.73;4.10;;;22.10;73.80;;;;;;5030143;28;20494;-73
2023/07/27 05:24:37;;;;;;;6.17;4.77;;;22.20;74.10;;;;;;5011972;28;20416;-73
2023/07/27 05:27:03;;;;;;;4.77;4.37;;;22.10;74.30;;;;;;4970730;28;21100;-73
2023/07/27 05:29:30;;;;;;;5.20;4.70;;;22.10;74.10;;;;;;5008527;28;20455;-73
2023/07/27 05:32:01;;;;;;;5.17;4.33;;;22.10;74.10;;;;;;4996822;28;20442;-73
2023/07/27 05:34:29;;;;;;;4.13;3.83;;;22.10;74.00;;;;;;5028768;28;20483;-73
2023/07/27 05:36:58;;;;;;;4.60;4.20;;;22.10;73.90;;;;;;5030777;28;21324;-73
2023/07/27 05:39:28;;;;;;;4.53;3.80;;;22.10;74.20;;;;;;4996986;28;20450;-73
2023/07/27 05:41:56;;;;;;;4.53;4.13;;;22.10;74.10;;;;;;5011613;28;20845;-73
2023/07/27 05:44:27;;;;;;;5.97;4.50;;;22.10;74.20;;;;;;5012897;28;20436;-73
2023/07/27 05:46:56;;;;;;;5.83;4.50;;;22.10;74.20;;;;;;4996258;28;20423;-73
2023/07/27 05:49:22;;;;;;;5.23;4.63;;;22.10;74.40;;;;;;4995293;28;20455;-73
2023/07/27 05:51:55;;;;;;;4.30;3.90;;;22.00;74.20;;;;;;5009259;28;20433;-73
2023/07/27 05:54:22;;;;;;;4.27;3.97;;;22.00;74.40;;;;;;5011419;28;20462;-73
2023/07/27 05:56:48;;;;;;;4.67;4.20;;;22.00;74.50;;;;;;5011337;28;20470;-73
2023/07/27 05:59:21;;;;;;;3.90;3.60;;;22.00;74.50;;;;;;5012401;28;20432;-72
2023/07/27 06:01:49;;;;;;;4.70;4.20;;;22.00;74.70;;;;;;5011874;28;20797;-73
2023/07/27 06:04:16;;;;;;;4.20;3.80;;;22.00;74.80;;;;;;5030072;28;20928;-70
2023/07/27 06:06:44;;;;;;;4.57;4.17;;;22.00;75.00;;;;;;4995664;28;20431;-73
2023/07/27 06:09:10;;;;;;;5.80;4.20;;;22.00;75.00;;;;;;5011426;28;20455;-73
2023/07/27 06:11:39;;;;;;;4.87;4.27;;;22.00;75.20;;;;;;5029137;28;20489;-73
2023/07/27 06:14:10;;;;;;;4.37;3.97;;;22.00;75.60;;;;;;5011460;28;20415;-74
2023/07/27 06:16:38;;;;;;;4.20;3.90;;;22.00;75.20;;;;;;5010989;28;20545;-73
2023/07/27 06:19:04;;;;;;;3.97;3.63;;;21.90;75.10;;;;;;5028528;28;20976;-75
2023/07/27 06:21:32;;;;;;;5.43;3.90;;;21.90;75.20;;;;;;5011203;28;20420;-73
2023/07/27 06:23:58;;;;;;;4.97;4.50;;;21.90;75.20;;;;;;5012086;28;20435;-73
2023/07/27 06:26:24;;;;;;;5.20;4.20;;;21.90;75.50;;;;;;5011164;28;20439;-73
2023/07/27 06:28:54;;;;;;;4.33;3.93;;;21.90;75.70;;;;;;5011399;28;21009;-73
2023/07/27 06:31:22;;;;;;;4.20;3.80;;;21.90;76.30;;;;;;4994497;28;20487;-73
2023/07/27 06:33:48;;;;;;;4.00;3.70;;;21.90;75.50;;;;;;5028525;28;20432;-73
2023/07/27 06:36:14;;;;;;;4.97;4.37;;;21.90;75.70;;;;;;5010769;28;20621;-73
2023/07/27 06:38:43;;;;;;;4.23;3.83;;;21.90;75.80;;;;;;4992994;28;20453;-73
2023/07/27 06:41:11;;;;;;;5.10;4.10;;;21.90;75.90;;;;;;5008262;28;20834;-73
2023/07/27 06:43:40;;;;;;;5.17;4.67;;;21.90;76.10;;;;;;5010769;28;20447;-73
2023/07/27 06:46:08;;;;;;;5.27;4.40;;;21.80;75.90;;;;;;5010664;28;20294;-73
2023/07/27 06:48:39;;;;;;;4.53;4.13;;;21.80;76.20;;;;;;5028695;28;20957;-73
2023/07/27 06:51:05;;;;;;;4.70;4.00;;;21.80;76.20;;;;;;5028623;28;20541;-73
2023/07/27 06:53:34;;;;;;;4.60;4.20;;;21.80;76.90;;;;;;5011733;28;20419;-73
2023/07/27 06:56:00;;;;;;;5.37;3.73;;;21.80;76.90;;;;;;5028044;28;20475;-72
2023/07/27 06:58:28;;;;;;;3.90;3.60;;;21.80;76.90;;;;;;5009874;28;20463;-71
2023/07/27 07:00:58;;;;;;;4.20;3.90;;;21.80;76.80;;;;;;4989437;28;20420;-71
2023/07/27 07:03:27;;;;;;;4.37;3.90;;;21.80;76.80;;;;;;5008864;28;20411;-72
2023/07/27 07:05:56;;;;;;;5.10;4.00;;;21.80;76.70;;;;;;4999393;28;20419;-71
2023/07/27 07:08:25;;;;;;;3.90;3.57;;;21.80;77.60;;;;;;5008167;28;20921;-72
2023/07/27 07:10:53;;;;;;;4.00;3.70;;;21.80;76.80;;;;;;5016874;28;20428;-72
2023/07/27 07:13:19;;;;;;;4.50;3.90;;;21.80;76.80;;;;;;5001231;28;20437;-72
2023/07/27 07:15:45;;;;;;;4.00;3.60;;;21.70;77.10;;;;;;5029063;28;21035;-72
2023/07/27 07:18:11;;;;;;;5.27;3.80;;;21.70;77.50;;;;;;5032361;28;20486;-72
2023/07/27 07:20:40;;;;;;;3.97;3.57;;;21.70;77.60;;;;;;5031341;28;20948;-71
2023/07/27 07:23:08;;;;;;;4.43;4.03;;;21.70;77.30;;;;;;5015054;28;20415;-72
2023/07/27 07:25:34;;;;;;;3.50;3.20;;;21.70;77.40;;;;;;5029952;28;20419;-71
2023/07/27 07:28:03;;;;;;;4.40;4.10;;;21.70;77.50;;;;;;5013811;28;20458;-71
2023/07/27 07:30:29;;;;;;;3.90;3.50;;;21.70;77.30;;;;;;5014510;28;20528;-71
2023/07/27 07:32:54;;;;;;;4.73;4.37;;;21.70;77.00;;;;;;5015317;28;20846;-71
2023/07/27 07:35:23;;;;;;;4.23;3.93;;;21.70;77.30;;;;;;5032284;28;20400;-71
2023/07/27 07:37:51;;;;;;;3.57;3.33;;;21.70;77.30;;;;;;5031636;28;20456;-71
2023/07/27 07:40:18;;;;;;;4.23;3.70;;;21.70;77.40;;;;;;5073006;23;20507;-76
2023/07/27 07:42:46;;;;;;;4.20;3.73;;;21.70;77.30;;;;;;5005494;28;20442;-76
2023/07/27 07:45:12;;;;;;;4.00;3.70;;;21.70;77.70;;;;;;5014667;28;20420;-76
2023/07/27 07:47:38;;;;;;;4.30;4.00;;;21.70;77.80;;;;;;5032563;28;20439;-76
2023/07/27 07:50:05;;;;;;;4.23;3.60;;;21.70;78.50;;;;;;5014529;28;20500;-77
2023/07/27 07:52:31;;;;;;;3.60;3.30;;;21.70;78.60;;;;;;5014197;28;20424;-76
2023/07/27 07:54:57;;;;;;;4.27;3.90;;;21.60;78.40;;;;;;5014404;28;21004;-77
2023/07/27 07:57:25;;;;;;;3.63;3.33;;;21.60;78.40;;;;;;5032178;28;20569;-76
2023/07/27 07:59:52;;;;;;;4.17;3.33;;;21.60;78.60;;;;;;5032538;28;20780;-77
2023/07/27 08:02:18;;;;;;;4.10;3.80;;;21.60;78.40;;;;;;5014587;28;20428;-76
2023/07/27 08:04:49;;;;;;;3.20;3.00;;;21.60;78.40;;;;;;5014419;28;20422;-76
2023/07/27 08:07:15;;;;;;;4.10;3.70;;;21.60;78.60;;;;;;4997831;28;20440;-76
2023/07/27 08:09:41;;;;;;;5.00;3.50;;;21.60;78.60;;;;;;5031040;28;20796;-77
2023/07/27 08:12:10;;;;;;;3.90;3.60;;;21.60;78.70;;;;;;4995052;28;20420;-76
2023/07/27 08:14:38;;;;;;;3.93;3.63;;;21.60;78.80;;;;;;5010968;28;20420;-76
2023/07/27 08:17:06;;;;;;;3.53;3.10;;;21.60;78.60;;;;;;5011611;28;20548;-76
2023/07/27 08:19:35;;;;;;;3.63;3.40;;;21.60;78.70;;;;;;5010273;28;20470;-76
2023/07/27 08:22:03;;;;;;;3.90;3.50;;;21.60;78.80;;;;;;5011840;28;20949;-76
2023/07/27 08:24:30;;;;;;;4.03;3.67;;;21.60;78.70;;;;;;5010721;28;20443;-77
2023/07/27 08:26:59;;;;;;;3.40;3.10;;;21.60;79.60;;;;;;4994882;28;20499;-77
2023/07/27 08:29:25;;;;;;;4.30;3.83;;;21.60;79.40;;;;;;5010842;28;20447;-77
2023/07/27 08:31:52;;;;;;;3.40;3.10;;;21.60;79.50;;;;;;4994499;28;20432;-76
2023/07/27 08:34:21;;;;;;;3.80;3.47;;;21.60;79.40;;;;;;4994002;28;20194;-76
2023/07/27 08:36:50;;;;;;;3.90;3.60;;;21.60;79.30;;;;;;4993546;28;20460;-76
2023/07/27 08:39:16;;;;;;;4.00;3.70;;;21.60;79.50;;;;;;5011313;28;20519;-76
2023/07/27 08:41:47;;;;;;;3.43;3.17;;;21.60;79.50;;;;;;4978240;28;20536;-76
2023/07/27 08:44:16;;;;;;;3.30;3.10;;;21.60;79.20;;;;;;4993662;28;20436;-76
2023/07/27 08:46:43;;;;;;;3.50;3.30;;;21.60;79.30;;;;;;5012105;28;20965;-76
2023/07/27 08:49:13;;;;;;;3.30;3.00;;;21.60;79.30;;;;;;5012542;28;20903;-77
2023/07/27 08:51:43;;;;;;;3.40;3.20;;;21.60;79.40;;;;;;5011649;28;20401;-76
2023/07/27 08:54:09;;;;;;;3.73;3.43;;;21.60;79.60;;;;;;4993808;28;20424;-76
2023/07/27 08:56:38;;;;;;;4.00;3.60;;;21.60;79.50;;;;;;4977450;28;20456;-77
2023/07/27 08:59:04;;;;;;;2.97;2.67;;;21.50;79.50;;;;;;4977028;28;20820;-76
2023/07/27 09:01:32;;;;;;;3.53;2.83;;;21.60;79.60;;;;;;4977710;28;20436;-76
2023/07/27 09:04:01;;;;;;;3.43;3.23;;;21.60;79.60;;;;;;4993867;28;20821;-77
2023/07/27 09:06:44;;;;;;;3.10;2.80;;;21.60;79.80;;;;;;4977066;28;20416;-77
2023/07/27 09:09:28;;;;;;;3.67;3.37;;;21.60;79.70;;;;;;4961254;28;20456;-76
2023/07/27 09:11:57;;;;;;;3.20;2.83;;;21.60;79.70;;;;;;5011145;28;20861;-76
2023/07/27 09:14:24;;;;;;;3.87;3.53;;;21.50;79.70;;;;;;4993015;28;20405;-76
2023/07/27 09:16:50;;;;;;;3.13;2.93;;;21.50;79.80;;;;;;5010524;28;20939;-77
2023/07/27 09:19:19;;;;;;;3.20;3.00;;;21.50;79.80;;;;;;5009473;28;21076;-76
2023/07/27 09:21:52;;;;;;;3.73;3.43;;;21.50;80.00;;;;;;4994080;28;20499;-76
2023/07/27 09:24:23;;;;;;;3.63;3.30;;;21.50;80.20;;;;;;4977979;28;21041;-77
2023/07/27 09:26:53;;;;;;;3.30;3.10;;;21.50;80.30;;;;;;4976551;28;20961;-76
2023/07/27 09:29:21;;;;;;;2.70;2.60;;;21.50;80.40;;;;;;4989176;28;21163;-76
2023/07/27 09:31:57;;;;;;;2.80;2.60;;;21.50;80.60;;;;;;4957711;28;20524;-77
2023/07/27 09:34:24;;;;;;;3.30;3.10;;;21.50;80.70;;;;;;4990407;28;20496;-77
2023/07/27 09:36:53;;;;;;;3.50;3.30;;;21.50;80.90;;;;;;4989785;28;20923;-76
2023/07/27 09:39:19;;;;;;;3.00;2.80;;;21.50;81.10;;;;;;4973805;28;20441;-77
2023/07/27 09:41:46;;;;;;;3.27;3.00;;;21.50;81.40;;;;;;5008705;28;20431;-76
2023/07/27 09:44:20;;;;;;;4.53;3.03;;;21.50;81.40;;;;;;5009177;28;20193;-77
2023/07/27 09:46:48;;;;;;;3.33;3.13;;;21.50;81.40;;;;;;4992911;28;20435;-78
2023/07/27 09:49:15;;;;;;;2.73;2.53;;;21.50;81.50;;;;;;4993461;28;20897;-77
2023/07/27 09:51:42;;;;;;;3.00;2.80;;;21.50;81.60;;;;;;5010033;28;20431;-76
2023/07/27 09:54:09;;;;;;;2.80;2.60;;;21.50;81.90;;;;;;4992636;28;20431;-76
2023/07/27 09:56:38;;;;;;;3.10;2.90;;;21.50;81.90;;;;;;4992361;28;21152;-76
2023/07/27 09:59:05;;;;;;;3.40;3.20;;;21.50;82.00;;;;;;5010042;28;20548;-76
2023/07/27 10:01:34;;;;;;;2.43;2.23;;;21.50;82.40;;;;;;4976920;28;21066;-76
2023/07/27 10:04:02;;;;;;;3.00;2.80;;;21.50;82.80;;;;;;4992851;28;20522;-76
2023/07/27 10:06:32;;;;;;;3.00;2.80;;;21.40;82.90;;;;;;4992609;28;20908;-76
2023/07/27 10:09:00;;;;;;;2.93;2.60;;;21.50;83.00;;;;;;5010334;28;20575;-76
2023/07/27 10:11:51;;;;;;;2.90;2.70;;;21.50;83.10;;;;;;5008648;28;20917;-76
2023/07/27 10:14:18;;;;;;;6.03;3.10;;;21.50;83.30;;;;;;4976523;28;20455;-76
2023/07/27 10:17:07;;;;;;;3.27;3.07;;;21.40;84.00;;;;;;4992930;28;20538;-76
2023/07/27 10:19:41;;;;;;;2.90;2.70;;;21.50;84.60;;;;;;4976548;28;20446;-76
2023/07/27 10:22:16;;;;;;;3.03;2.83;;;21.40;85.20;;;;;;5009785;28;20414;-77
2023/07/27 10:24:53;;;;;;;3.43;3.10;;;21.40;85.20;;;;;;4994153;28;20424;-77
2023/07/27 10:27:20;;;;;;;3.80;3.50;;;21.40;85.20;;;;;;4992564;28;20431;-75
2023/07/27 10:29:48;;;;;;;3.20;3.00;;;21.40;85.80;;;;;;5009693;28;20993;-76
2023/07/27 10:32:14;;;;;;;3.20;2.90;;;21.40;86.10;;;;;;4976690;28;20546;-76
2023/07/27 10:34:41;;;;;;;3.30;3.10;;;21.40;86.80;;;;;;5009181;28;20439;-76
2023/07/27 10:37:08;;;;;;;3.40;3.10;;;21.40;86.20;;;;;;4992507;28;20470;-76
2023/07/27 10:39:44;;;;;;;3.43;3.13;;;21.40;86.20;;;;;;4991253;28;20475;-76
2023/07/27 10:42:17;;;;;;;3.20;3.00;;;21.40;85.90;;;;;;4992166;28;20481;-75
2023/07/27 10:44:57;;;;;;;3.27;3.07;;;21.40;85.90;;;;;;4992530;28;20422;-76
2023/07/27 10:47:27;;;;;;;4.03;3.40;;;21.40;86.00;;;;;;5010244;28;20416;-76
2023/07/27 10:49:56;;;;;;;3.27;3.07;;;21.40;86.20;;;;;;4992955;28;20444;-75
2023/07/27 10:52:44;;;;;;;3.60;3.30;;;21.40;86.30;;;;;;5009240;28;20469;-76
2023/07/27 10:55:10;;;;;;;4.20;3.83;;;21.40;86.60;;;;;;5009813;28;20836;-76
2023/07/27 10:57:39;;;;;;;3.70;3.47;;;21.40;87.00;;;;;;4975013;28;20511;-76
2023/07/27 11:00:05;;;;;;;3.50;2.97;;;21.40;87.40;;;;;;4975141;28;20513;-76
2023/07/27 11:02:32;;;;;;;3.30;3.00;;;21.40;88.60;;;;;;4991571;28;20427;-75
2023/07/27 11:05:00;;;;;;;3.67;3.37;;;21.40;88.10;;;;;;4992138;28;20467;-76
2023/07/27 11:07:35;;;;;;;3.40;3.10;;;21.40;89.20;;;;;;5010009;28;20416;-76
2023/07/27 11:10:09;;;;;;;3.40;3.20;;;21.40;88.70;;;;;;4992525;28;20538;-76
2023/07/27 11:12:49;;;;;;;3.60;3.40;;;21.40;88.40;;;;;;4990394;28;20451;-76
2023/07/27 11:15:25;;;;;;;3.90;3.60;;;21.40;89.60;;;;;;4992150;28;20907;-76
2023/07/27 11:17:53;;;;;;;3.57;3.30;;;21.40;90.40;;;;;;4991212;28;20460;-76
2023/07/27 11:20:26;;;;;;;3.80;3.50;;;21.40;90.20;;;;;;4991090;28;20832;-76
2023/07/27 11:22:55;;;;;;;3.60;3.30;;;21.40;90.20;;;;;;4959463;28;20458;-76
2023/07/27 11:28:19;;;;;;;3.77;3.47;;;21.40;90.20;;;;;;5018664;28;20517;-75
2023/07/27 11:30:51;;;;;;;3.80;3.50;;;21.50;90.40;;;;;;5026309;28;20499;-76
2023/07/27 11:33:29;;;;;;;3.23;3.03;;;21.40;90.70;;;;;;5008144;28;20555;-76
2023/07/27 11:35:56;;;;;;;3.63;3.33;;;21.50;90.80;;;;;;5008332;28;20442;-76
2023/07/27 11:38:22;;;;;;;3.57;3.27;;;21.50;91.30;;;;;;4994375;28;20466;-76
2023/07/27 11:40:49;;;;;;;3.60;3.40;;;21.50;91.20;;;;;;5044153;28;20457;-76
2023/07/27 11:43:15;;;;;;;3.13;2.93;;;21.50;90.90;;;;;;5027768;28;20811;-77
2023/07/27 11:45:41;;;;;;;2.90;2.70;;;21.50;91.10;;;;;;5046466;28;20429;-77
2023/07/27 11:48:09;;;;;;;3.00;2.80;;;21.50;91.40;;;;;;5028049;28;20403;-76
2023/07/27 11:50:38;;;;;;;2.60;2.40;;;21.50;91.50;;;;;;5045525;28;20437;-77
2023/07/27 11:53:11;;;;;;;3.20;3.00;;;21.50;91.30;;;;;;5028869;28;20432;-76
2023/07/27 11:55:37;;;;;;;2.50;2.40;;;21.50;91.60;;;;;;4995248;28;20426;-76
2023/07/27 11:58:10;;;;;;;3.20;2.90;;;21.50;91.60;;;;;;5027188;28;20889;-76
2023/07/27 12:00:41;;;;;;;3.10;2.90;;;21.50;91.70;;;;;;5047116;28;20435;-75
2023/07/27 12:03:07;;;;;;;3.50;3.17;;;21.50;92.40;;;;;;5049256;28;20411;-76
2023/07/27 12:05:33;;;;;;;2.80;2.70;;;21.50;92.00;;;;;;5015131;28;20448;-75
2023/07/27 12:07:59;;;;;;;2.60;2.40;;;21.50;92.10;;;;;;5031506;28;20446;-76
2023/07/27 12:10:25;;;;;;;2.53;2.40;;;21.50;92.30;;;;;;5015150;28;20458;-76
2023/07/27 12:12:58;;;;;;;2.63;2.53;;;21.50;92.40;;;;;;5029591;28;21046;-76
2023/07/27 12:15:29;;;;;;;2.90;2.70;;;21.50;92.50;;;;;;5014147;28;20944;-76
2023/07/27 12:18:00;;;;;;;2.40;2.30;;;21.50;93.00;;;;;;5029614;28;20777;-76
2023/07/27 12:20:27;;;;;;;2.50;2.40;;;21.50;92.70;;;;;;5030434;28;20453;-77
2023/07/27 12:22:58;;;;;;;2.30;2.20;;;21.50;93.20;;;;;;5013545;28;20995;-76
2023/07/27 12:25:28;;;;;;;2.97;2.77;;;21.50;93.60;;;;;;5031501;28;20491;-76
2023/07/27 12:27:55;;;;;;;2.43;2.33;;;21.50;93.40;;;;;;5031686;28;20438;-75
2023/07/27 12:30:22;;;;;;;2.33;2.17;;;21.50;93.00;;;;;;5031334;28;20449;-76
2023/07/27 12:32:49;;;;;;;3.13;2.93;;;21.50;93.50;;;;;;5049709;28;20521;-76
2023/07/27 12:35:18;;;;;;;2.93;2.73;;;21.50;93.60;;;;;;4998034;28;20510;-76
2023/07/27 12:37:47;;;;;;;2.60;2.40;;;21.50;93.70;;;;;;5030903;28;20489;-76
2023/07/27 12:40:13;;;;;;;3.00;2.80;;;21.50;93.60;;;;;;5009870;28;20446;-76
2023/07/27 12:42:39;;;;;;;2.43;2.27;;;21.50;93.30;;;;;;5028363;28;20412;-76
2023/07/27 12:45:06;;;;;;;2.73;2.53;;;21.50;93.30;;;;;;5004038;28;20422;-76
2023/07/27 12:47:32;;;;;;;2.43;2.33;;;21.50;92.90;;;;;;5030945;28;20447;-76
2023/07/27 12:50:02;;;;;;;3.33;2.90;;;21.60;93.40;;;;;;5031038;28;20856;-76
2023/07/27 12:52:28;;;;;;;2.67;2.50;;;21.60;93.30;;;;;;5013930;28;20442;-76
2023/07/27 12:54:54;;;;;;;5.00;2.57;;;21.60;93.50;;;;;;5048403;28;20786;-76
2023/07/27 12:57:21;;;;;;;2.80;2.60;;;21.60;93.70;;;;;;5029680;28;20200;-76
2023/07/27 12:59:51;;;;;;;2.60;2.40;;;21.50;93.80;;;;;;5029976;28;20801;-76
2023/07/27 13:02:17;;;;;;;2.80;2.37;;;21.60;94.10;;;;;;5029699;28;20426;-76